sensor_id;sensor_type;location;lat;lon;timestamp;pressure;altitude;pressure_sealevel;temperature;humidity
52291;BME280;39663;45.432;28.050;2023-05-08T00:00:24;101635.72;;;18.21;31.48
52291;BME280;39663;45.432;28.050;2023-05-08T00:00:56;101633.82;;;17.71;31.54
52291;BME280;39663;45.432;28.050;2023-05-08T00:01:29;101633.41;;;17.81;31.42
52291;BME280;39663;45.432;28.050;2023-05-08T00:02:00;101634.72;;;17.77;31.54
52291;BME280;39663;45.432;28.050;2023-05-08T00:02:32;101634.45;;;18.04;31.53
52291;BME280;39663;45.432;28.050;2023-05-08T00:03:03;101636.89;;;17.75;31.65
52291;BME280;39663;45.432;28.050;2023-05-08T00:03:35;101636.73;;;17.86;31.81
52291;BME280;39663;45.432;28.050;2023-05-08T00:04:07;101636.20;;;17.70;32.23
52291;BME280;39663;45.432;28.050;2023-05-08T00:04:38;101637.23;;;17.89;32.23
52291;BME280;39663;45.432;28.050;2023-05-08T00:05:09;101638.10;;;17.90;32.20
52291;BME280;39663;45.432;28.050;2023-05-08T00:05:41;101638.63;;;17.71;32.23
52291;BME280;39663;45.432;28.050;2023-05-08T00:06:12;101639.13;;;17.81;32.16
52291;BME280;39663;45.432;28.050;2023-05-08T00:06:44;101641.91;;;17.74;32.22
52291;BME280;39663;45.432;28.050;2023-05-08T00:07:16;101642.60;;;17.77;32.30
52291;BME280;39663;45.432;28.050;2023-05-08T00:07:47;101644.65;;;17.34;32.30
52291;BME280;39663;45.432;28.050;2023-05-08T00:08:19;101645.03;;;17.89;32.01
52291;BME280;39663;45.432;28.050;2023-05-08T00:08:50;101644.50;;;17.66;32.13
52291;BME280;39663;45.432;28.050;2023-05-08T00:09:22;101646.63;;;17.85;32.22
52291;BME280;39663;45.432;28.050;2023-05-08T00:09:54;101648.79;;;17.91;32.09
52291;BME280;39663;45.432;28.050;2023-05-08T00:10:25;101650.76;;;17.82;32.04
52291;BME280;39663;45.432;28.050;2023-05-08T00:10:57;101652.08;;;17.83;31.97
52291;BME280;39663;45.432;28.050;2023-05-08T00:11:28;101651.46;;;17.68;32.11
52291;BME280;39663;45.432;28.050;2023-05-08T00:12:00;101651.73;;;17.76;32.08
52291;BME280;39663;45.432;28.050;2023-05-08T00:12:32;101651.87;;;17.94;32.02
52291;BME280;39663;45.432;28.050;2023-05-08T00:13:04;101654.72;;;17.99;32.05
52291;BME280;39663;45.432;28.050;2023-05-08T00:13:35;101655.30;;;17.82;32.14
52291;BME280;39663;45.432;28.050;2023-05-08T00:14:07;101654.04;;;17.76;32.09
52291;BME280;39663;45.432;28.050;2023-05-08T00:14:39;101651.63;;;17.19;32.19
52291;BME280;39663;45.432;28.050;2023-05-08T00:15:11;101652.69;;;17.39;32.34
52291;BME280;39663;45.432;28.050;2023-05-08T00:15:42;101652.40;;;17.67;32.56
52291;BME280;39663;45.432;28.050;2023-05-08T00:16:13;101650.90;;;17.51;32.72
52291;BME280;39663;45.432;28.050;2023-05-08T00:16:45;101649.74;;;17.54;32.79
52291;BME280;39663;45.432;28.050;2023-05-08T00:17:17;101649.77;;;17.48;32.49
52291;BME280;39663;45.432;28.050;2023-05-08T00:17:48;101650.82;;;17.11;32.75
52291;BME280;39663;45.432;28.050;2023-05-08T00:18:20;101648.44;;;16.85;32.84
52291;BME280;39663;45.432;28.050;2023-05-08T00:18:53;101647.99;;;16.39;32.74
52291;BME280;39663;45.432;28.050;2023-05-08T00:19:24;101646.87;;;16.96;32.65
52291;BME280;39663;45.432;28.050;2023-05-08T00:19:56;101647.95;;;17.04;32.44
52291;BME280;39663;45.432;28.050;2023-05-08T00:20:28;101649.12;;;17.50;32.58
52291;BME280;39663;45.432;28.050;2023-05-08T00:20:59;101647.52;;;17.45;32.63
52291;BME280;39663;45.432;28.050;2023-05-08T00:21:31;101649.71;;;17.39;32.80
52291;BME280;39663;45.432;28.050;2023-05-08T00:22:03;101648.44;;;17.60;32.77
52291;BME280;39663;45.432;28.050;2023-05-08T00:22:34;101648.79;;;17.36;33.45
52291;BME280;39663;45.432;28.050;2023-05-08T00:23:06;101649.96;;;17.35;32.88
52291;BME280;39663;45.432;28.050;2023-05-08T00:23:38;101650.29;;;17.36;32.71
52291;BME280;39663;45.432;28.050;2023-05-08T00:24:09;101652.10;;;17.14;32.92
52291;BME280;39663;45.432;28.050;2023-05-08T00:24:41;101651.95;;;17.36;33.09
52291;BME280;39663;45.432;28.050;2023-05-08T00:25:12;101651.66;;;17.40;32.82
52291;BME280;39663;45.432;28.050;2023-05-08T00:25:44;101651.11;;;17.45;32.81
52291;BME280;39663;45.432;28.050;2023-05-08T00:26:15;101649.93;;;17.54;32.68
52291;BME280;39663;45.432;28.050;2023-05-08T00:26:47;101650.65;;;17.54;33.08
52291;BME280;39663;45.432;28.050;2023-05-08T00:27:18;101650.20;;;17.31;33.47
52291;BME280;39663;45.432;28.050;2023-05-08T00:27:50;101646.06;;;17.38;33.06
52291;BME280;39663;45.432;28.050;2023-05-08T00:28:21;101646.39;;;17.37;33.35
52291;BME280;39663;45.432;28.050;2023-05-08T00:28:53;101644.77;;;17.45;33.17
52291;BME280;39663;45.432;28.050;2023-05-08T00:29:24;101644.24;;;17.44;33.35
52291;BME280;39663;45.432;28.050;2023-05-08T00:29:56;101641.68;;;17.42;33.04
52291;BME280;39663;45.432;28.050;2023-05-08T00:30:27;101644.02;;;17.19;33.36
52291;BME280;39663;45.432;28.050;2023-05-08T00:30:59;101643.07;;;17.31;33.09
52291;BME280;39663;45.432;28.050;2023-05-08T00:31:30;101642.99;;;17.29;33.02
52291;BME280;39663;45.432;28.050;2023-05-08T00:32:02;101645.53;;;17.35;32.86
52291;BME280;39663;45.432;28.050;2023-05-08T00:32:34;101644.70;;;17.33;33.48
52291;BME280;39663;45.432;28.050;2023-05-08T00:33:05;101645.78;;;17.40;32.82
52291;BME280;39663;45.432;28.050;2023-05-08T00:33:37;101644.38;;;17.58;33.06
52291;BME280;39663;45.432;28.050;2023-05-08T00:34:08;101645.05;;;17.62;33.16
52291;BME280;39663;45.432;28.050;2023-05-08T00:34:39;101646.34;;;17.62;32.97
52291;BME280;39663;45.432;28.050;2023-05-08T00:35:11;101647.12;;;17.74;32.82
52291;BME280;39663;45.432;28.050;2023-05-08T00:35:42;101649.16;;;17.38;33.22
52291;BME280;39663;45.432;28.050;2023-05-08T00:36:14;101648.63;;;17.25;32.96
52291;BME280;39663;45.432;28.050;2023-05-08T00:36:45;101651.35;;;17.63;32.65
52291;BME280;39663;45.432;28.050;2023-05-08T00:37:17;101653.29;;;17.48;32.81
52291;BME280;39663;45.432;28.050;2023-05-08T00:37:48;101654.78;;;17.38;32.84
52291;BME280;39663;45.432;28.050;2023-05-08T00:38:20;101655.54;;;17.59;32.84
52291;BME280;39663;45.432;28.050;2023-05-08T00:38:52;101657.72;;;17.60;32.79
52291;BME280;39663;45.432;28.050;2023-05-08T00:39:24;101658.61;;;17.62;32.87
52291;BME280;39663;45.432;28.050;2023-05-08T00:39:56;101660.04;;;17.72;32.84
52291;BME280;39663;45.432;28.050;2023-05-08T00:40:27;101660.32;;;17.86;32.50
52291;BME280;39663;45.432;28.050;2023-05-08T00:40:59;101660.97;;;17.59;32.65
52291;BME280;39663;45.432;28.050;2023-05-08T00:41:31;101662.40;;;17.56;32.71
52291;BME280;39663;45.432;28.050;2023-05-08T00:42:02;101663.02;;;17.68;32.49
52291;BME280;39663;45.432;28.050;2023-05-08T00:42:34;101663.54;;;17.85;32.41
52291;BME280;39663;45.432;28.050;2023-05-08T00:43:05;101664.95;;;17.61;32.56
52291;BME280;39663;45.432;28.050;2023-05-08T00:43:37;101665.20;;;17.64;32.69
52291;BME280;39663;45.432;28.050;2023-05-08T00:44:08;101663.81;;;17.52;32.68
52291;BME280;39663;45.432;28.050;2023-05-08T00:44:40;101665.10;;;17.58;32.56
52291;BME280;39663;45.432;28.050;2023-05-08T00:45:12;101663.76;;;17.96;32.51
52291;BME280;39663;45.432;28.050;2023-05-08T00:45:43;101667.30;;;17.74;32.52
52291;BME280;39663;45.432;28.050;2023-05-08T00:46:15;101664.51;;;17.71;32.64
52291;BME280;39663;45.432;28.050;2023-05-08T00:46:47;101663.68;;;17.69;32.63
52291;BME280;39663;45.432;28.050;2023-05-08T00:47:19;101662.82;;;17.65;32.81
52291;BME280;39663;45.432;28.050;2023-05-08T00:47:51;101663.67;;;17.68;32.46
52291;BME280;39663;45.432;28.050;2023-05-08T00:48:24;101662.36;;;17.68;32.53
52291;BME280;39663;45.432;28.050;2023-05-08T00:48:59;101662.73;;;17.37;32.86
52291;BME280;39663;45.432;28.050;2023-05-08T00:49:31;101663.27;;;17.66;32.53
52291;BME280;39663;45.432;28.050;2023-05-08T00:50:03;101661.43;;;17.72;32.55
52291;BME280;39663;45.432;28.050;2023-05-08T00:50:35;101659.22;;;17.61;32.82
52291;BME280;39663;45.432;28.050;2023-05-08T00:51:08;101658.56;;;17.62;32.68
52291;BME280;39663;45.432;28.050;2023-05-08T00:51:41;101660.36;;;17.63;32.67
52291;BME280;39663;45.432;28.050;2023-05-08T00:52:13;101657.00;;;17.55;32.78
52291;BME280;39663;45.432;28.050;2023-05-08T00:52:45;101656.29;;;17.57;32.77
52291;BME280;39663;45.432;28.050;2023-05-08T00:53:18;101656.78;;;17.57;32.64
52291;BME280;39663;45.432;28.050;2023-05-08T00:53:50;101656.78;;;17.45;32.48
52291;BME280;39663;45.432;28.050;2023-05-08T00:54:22;101656.19;;;17.50;32.85
52291;BME280;39663;45.432;28.050;2023-05-08T00:54:54;101656.10;;;17.54;32.82
52291;BME280;39663;45.432;28.050;2023-05-08T00:55:27;101654.86;;;17.75;32.68
52291;BME280;39663;45.432;28.050;2023-05-08T00:56:00;101656.50;;;17.53;32.77
52291;BME280;39663;45.432;28.050;2023-05-08T00:56:31;101655.99;;;17.58;32.64
52291;BME280;39663;45.432;28.050;2023-05-08T00:57:06;101655.61;;;17.71;32.71
52291;BME280;39663;45.432;28.050;2023-05-08T00:57:37;101655.31;;;17.48;32.66
52291;BME280;39663;45.432;28.050;2023-05-08T00:58:10;101657.89;;;17.12;32.91
52291;BME280;39663;45.432;28.050;2023-05-08T00:58:42;101657.26;;;17.46;33.15
52291;BME280;39663;45.432;28.050;2023-05-08T00:59:15;101658.22;;;17.14;33.26
52291;BME280;39663;45.432;28.050;2023-05-08T00:59:48;101657.72;;;16.99;33.18
52291;BME280;39663;45.432;28.050;2023-05-08T01:00:21;101658.74;;;17.17;33.28
52291;BME280;39663;45.432;28.050;2023-05-08T01:00:54;101657.37;;;17.25;33.10
52291;BME280;39663;45.432;28.050;2023-05-08T01:01:40;101659.44;;;17.27;33.24
52291;BME280;39663;45.432;28.050;2023-05-08T01:02:13;101659.64;;;17.24;32.59
52291;BME280;39663;45.432;28.050;2023-05-08T01:02:44;101659.70;;;17.34;32.41
52291;BME280;39663;45.432;28.050;2023-05-08T01:03:16;101661.51;;;17.54;32.58
52291;BME280;39663;45.432;28.050;2023-05-08T01:03:48;101661.83;;;17.52;32.59
52291;BME280;39663;45.432;28.050;2023-05-08T01:04:22;101661.93;;;17.36;32.88
52291;BME280;39663;45.432;28.050;2023-05-08T01:04:55;101663.18;;;17.41;32.75
52291;BME280;39663;45.432;28.050;2023-05-08T01:05:27;101663.27;;;17.39;32.90
52291;BME280;39663;45.432;28.050;2023-05-08T01:05:59;101664.32;;;17.53;32.93
52291;BME280;39663;45.432;28.050;2023-05-08T01:06:31;101663.19;;;17.56;33.02
52291;BME280;39663;45.432;28.050;2023-05-08T01:07:03;101663.44;;;17.34;33.19
52291;BME280;39663;45.432;28.050;2023-05-08T01:07:34;101663.43;;;17.56;33.20
52291;BME280;39663;45.432;28.050;2023-05-08T01:08:06;101663.90;;;17.12;33.25
52291;BME280;39663;45.432;28.050;2023-05-08T01:08:38;101664.18;;;17.41;33.06
52291;BME280;39663;45.432;28.050;2023-05-08T01:09:09;101663.82;;;17.42;32.95
52291;BME280;39663;45.432;28.050;2023-05-08T01:09:41;101662.72;;;17.33;33.16
52291;BME280;39663;45.432;28.050;2023-05-08T01:10:12;101663.44;;;17.26;32.86
52291;BME280;39663;45.432;28.050;2023-05-08T01:10:50;101663.64;;;17.35;32.79
52291;BME280;39663;45.432;28.050;2023-05-08T01:11:31;101662.04;;;17.44;33.16
52291;BME280;39663;45.432;28.050;2023-05-08T01:12:16;101661.62;;;17.33;32.86
52291;BME280;39663;45.432;28.050;2023-05-08T01:13:00;101662.88;;;17.25;32.89
52291;BME280;39663;45.432;28.050;2023-05-08T01:13:47;101661.07;;;17.54;32.59
52291;BME280;39663;45.432;28.050;2023-05-08T01:14:26;101662.17;;;17.48;32.82
52291;BME280;39663;45.432;28.050;2023-05-08T01:15:06;101661.51;;;17.71;32.84
52291;BME280;39663;45.432;28.050;2023-05-08T01:15:46;101661.58;;;17.45;32.92
52291;BME280;39663;45.432;28.050;2023-05-08T01:16:26;101661.18;;;17.26;32.79
52291;BME280;39663;45.432;28.050;2023-05-08T01:17:08;101663.62;;;17.33;33.17
52291;BME280;39663;45.432;28.050;2023-05-08T01:17:52;101660.98;;;17.48;33.12
52291;BME280;39663;45.432;28.050;2023-05-08T01:18:29;101661.57;;;17.54;32.61
52291;BME280;39663;45.432;28.050;2023-05-08T01:19:18;101662.76;;;17.49;32.86
52291;BME280;39663;45.432;28.050;2023-05-08T01:20:11;101662.69;;;17.30;33.23
52291;BME280;39663;45.432;28.050;2023-05-08T01:20:48;101661.09;;;17.43;32.56
52291;BME280;39663;45.432;28.050;2023-05-08T01:21:34;101660.26;;;17.47;32.38
52291;BME280;39663;45.432;28.050;2023-05-08T01:22:17;101660.20;;;17.37;32.58
52291;BME280;39663;45.432;28.050;2023-05-08T01:24:50;101660.06;;;17.25;32.78
52291;BME280;39663;45.432;28.050;2023-05-08T01:25:54;101661.16;;;17.27;32.76
52291;BME280;39663;45.432;28.050;2023-05-08T01:27:50;101661.01;;;17.25;32.79
52291;BME280;39663;45.432;28.050;2023-05-08T01:29:04;101660.11;;;17.04;
52291;BME280;39663;45.432;28.050;2023-05-08T01:30:13;101659.92;;;17.09;33.78
52291;BME280;39663;45.432;28.050;2023-05-08T01:30:59;101657.91;;;16.70;33.95
52291;BME280;39663;45.432;28.050;2023-05-08T01:31:46;101658.30;;;16.99;34.18
52291;BME280;39663;45.432;28.050;2023-05-08T01:32:23;101660.63;;;16.79;34.43
52291;BME280;39663;45.432;28.050;2023-05-08T01:33:00;101660.90;;;16.62;34.42
52291;BME280;39663;45.432;28.050;2023-05-08T01:33:35;101663.02;;;17.01;34.38
52291;BME280;39663;45.432;28.050;2023-05-08T01:34:16;101662.10;;;17.07;34.65
52291;BME280;39663;45.432;28.050;2023-05-08T01:34:57;101665.67;;;16.88;34.32
52291;BME280;39663;45.432;28.050;2023-05-08T01:35:36;101666.75;;;17.04;34.80
52291;BME280;39663;45.432;28.050;2023-05-08T01:36:19;101667.87;;;17.01;35.21
52291;BME280;39663;45.432;28.050;2023-05-08T01:36:56;101670.66;;;17.15;35.13
52291;BME280;39663;45.432;28.050;2023-05-08T01:37:41;101671.46;;;16.90;34.95
52291;BME280;39663;45.432;28.050;2023-05-08T01:38:21;101673.94;;;16.84;35.01
52291;BME280;39663;45.432;28.050;2023-05-08T01:39:07;101673.69;;;17.02;34.85
52291;BME280;39663;45.432;28.050;2023-05-08T01:39:45;101673.80;;;17.10;34.68
52291;BME280;39663;45.432;28.050;2023-05-08T01:40:27;101674.46;;;17.04;34.72
52291;BME280;39663;45.432;28.050;2023-05-08T01:41:07;101675.36;;;17.16;34.86
52291;BME280;39663;45.432;28.050;2023-05-08T01:41:56;101678.07;;;17.26;34.90
52291;BME280;39663;45.432;28.050;2023-05-08T01:42:37;101678.57;;;17.12;34.71
52291;BME280;39663;45.432;28.050;2023-05-08T01:43:18;101680.45;;;17.00;35.00
52291;BME280;39663;45.432;28.050;2023-05-08T01:44:07;101680.18;;;17.15;35.30
52291;BME280;39663;45.432;28.050;2023-05-08T01:44:46;101680.05;;;17.13;35.19
52291;BME280;39663;45.432;28.050;2023-05-08T01:45:24;101682.59;;;17.22;35.40
52291;BME280;39663;45.432;28.050;2023-05-08T01:45:58;101685.01;;;17.10;35.91
52291;BME280;39663;45.432;28.050;2023-05-08T01:46:32;101685.17;;;16.96;35.98
52291;BME280;39663;45.432;28.050;2023-05-08T01:47:06;101685.02;;;17.17;36.39
52291;BME280;39663;45.432;28.050;2023-05-08T01:47:40;101686.63;;;17.00;36.25
52291;BME280;39663;45.432;28.050;2023-05-08T01:48:18;101684.13;;;16.91;35.72
52291;BME280;39663;45.432;28.050;2023-05-08T01:48:58;101685.55;;;16.93;36.06
52291;BME280;39663;45.432;28.050;2023-05-08T01:49:35;101685.83;;;16.91;35.89
52291;BME280;39663;45.432;28.050;2023-05-08T01:50:13;101687.71;;;16.99;36.08
52291;BME280;39663;45.432;28.050;2023-05-08T01:50:48;101686.12;;;16.82;35.89
52291;BME280;39663;45.432;28.050;2023-05-08T01:51:25;101688.39;;;17.07;36.27
52291;BME280;39663;45.432;28.050;2023-05-08T01:52:02;101688.97;;;16.82;36.44
52291;BME280;39663;45.432;28.050;2023-05-08T01:52:38;101690.00;;;16.96;36.46
52291;BME280;39663;45.432;28.050;2023-05-08T01:53:19;101688.61;;;17.02;36.13
52291;BME280;39663;45.432;28.050;2023-05-08T01:53:54;101689.96;;;16.84;35.94
52291;BME280;39663;45.432;28.050;2023-05-08T01:54:29;101690.33;;;16.91;36.55
52291;BME280;39663;45.432;28.050;2023-05-08T01:55:10;101692.23;;;16.98;36.58
52291;BME280;39663;45.432;28.050;2023-05-08T01:55:43;101691.81;;;16.81;36.72
52291;BME280;39663;45.432;28.050;2023-05-08T01:56:20;101691.47;;;16.91;36.52
52291;BME280;39663;45.432;28.050;2023-05-08T01:56:55;101692.44;;;16.69;36.44
52291;BME280;39663;45.432;28.050;2023-05-08T01:57:29;101692.09;;;16.96;36.72
52291;BME280;39663;45.432;28.050;2023-05-08T01:58:06;101691.82;;;16.92;36.44
52291;BME280;39663;45.432;28.050;2023-05-08T01:58:39;101691.62;;;16.91;36.63
52291;BME280;39663;45.432;28.050;2023-05-08T01:59:14;101692.98;;;17.03;36.67
52291;BME280;39663;45.432;28.050;2023-05-08T01:59:48;101693.08;;;17.10;36.40
52291;BME280;39663;45.432;28.050;2023-05-08T02:00:21;101691.74;;;17.06;36.70
52291;BME280;39663;45.432;28.050;2023-05-08T02:00:54;101690.94;;;17.11;36.91
52291;BME280;39663;45.432;28.050;2023-05-08T02:01:27;101690.84;;;16.83;37.05
52291;BME280;39663;45.432;28.050;2023-05-08T02:02:00;101688.91;;;16.79;36.92
52291;BME280;39663;45.432;28.050;2023-05-08T02:02:34;101687.76;;;16.78;36.87
52291;BME280;39663;45.432;28.050;2023-05-08T02:03:07;101689.53;;;16.70;36.72
52291;BME280;39663;45.432;28.050;2023-05-08T02:03:41;101687.73;;;16.68;36.78
52291;BME280;39663;45.432;28.050;2023-05-08T02:04:14;101686.94;;;16.99;36.82
52291;BME280;39663;45.432;28.050;2023-05-08T02:04:47;101687.90;;;17.12;36.63
52291;BME280;39663;45.432;28.050;2023-05-08T02:05:20;101686.27;;;16.86;36.59
52291;BME280;39663;45.432;28.050;2023-05-08T02:05:55;101687.64;;;16.98;36.93
52291;BME280;39663;45.432;28.050;2023-05-08T02:06:28;101687.38;;;17.00;37.56
52291;BME280;39663;45.432;28.050;2023-05-08T02:07:01;101688.24;;;17.01;37.31
52291;BME280;39663;45.432;28.050;2023-05-08T02:07:34;101687.93;;;17.00;37.46
52291;BME280;39663;45.432;28.050;2023-05-08T02:08:08;101688.67;;;16.68;37.32
52291;BME280;39663;45.432;28.050;2023-05-08T02:08:43;101688.20;;;16.89;37.27
52291;BME280;39663;45.432;28.050;2023-05-08T02:09:15;101687.90;;;16.90;37.29
52291;BME280;39663;45.432;28.050;2023-05-08T02:09:48;101690.07;;;16.66;37.96
52291;BME280;39663;45.432;28.050;2023-05-08T02:10:23;101691.77;;;16.80;37.88
52291;BME280;39663;45.432;28.050;2023-05-08T02:10:55;101690.89;;;16.69;38.09
52291;BME280;39663;45.432;28.050;2023-05-08T02:11:28;101692.29;;;16.71;37.76
52291;BME280;39663;45.432;28.050;2023-05-08T02:12:01;101692.84;;;16.73;37.71
52291;BME280;39663;45.432;28.050;2023-05-08T02:12:35;101697.26;;;16.57;38.01
52291;BME280;39663;45.432;28.050;2023-05-08T02:13:09;101694.10;;;16.86;37.62
52291;BME280;39663;45.432;28.050;2023-05-08T02:13:42;101693.70;;;16.68;37.66
52291;BME280;39663;45.432;28.050;2023-05-08T02:14:15;101694.09;;;16.56;37.91
52291;BME280;39663;45.432;28.050;2023-05-08T02:14:50;101696.87;;;16.55;38.52
52291;BME280;39663;45.432;28.050;2023-05-08T02:15:24;101695.45;;;16.77;38.57
52291;BME280;39663;45.432;28.050;2023-05-08T02:15:57;101701.93;;;16.39;39.64
52291;BME280;39663;45.432;28.050;2023-05-08T02:16:30;101700.03;;;16.57;38.50
52291;BME280;39663;45.432;28.050;2023-05-08T02:17:02;101699.02;;;16.29;38.51
52291;BME280;39663;45.432;28.050;2023-05-08T02:17:36;101700.01;;;16.34;38.92
52291;BME280;39663;45.432;28.050;2023-05-08T02:18:08;101700.27;;;16.08;38.53
52291;BME280;39663;45.432;28.050;2023-05-08T02:18:43;101700.41;;;16.13;38.89
52291;BME280;39663;45.432;28.050;2023-05-08T02:19:17;101700.19;;;16.40;38.65
52291;BME280;39663;45.432;28.050;2023-05-08T02:19:53;101702.17;;;16.30;38.69
52291;BME280;39663;45.432;28.050;2023-05-08T02:20:25;101703.63;;;16.39;38.82
52291;BME280;39663;45.432;28.050;2023-05-08T02:20:59;101703.67;;;16.56;39.26
52291;BME280;39663;45.432;28.050;2023-05-08T02:21:33;101705.99;;;16.09;38.73
52291;BME280;39663;45.432;28.050;2023-05-08T02:22:07;101706.11;;;16.22;39.01
52291;BME280;39663;45.432;28.050;2023-05-08T02:22:41;101705.64;;;16.22;38.87
52291;BME280;39663;45.432;28.050;2023-05-08T02:23:14;101705.94;;;16.49;38.73
52291;BME280;39663;45.432;28.050;2023-05-08T02:23:47;101706.45;;;16.32;38.72
52291;BME280;39663;45.432;28.050;2023-05-08T02:24:19;101707.16;;;16.22;38.59
52291;BME280;39663;45.432;28.050;2023-05-08T02:24:53;101708.94;;;16.28;38.80
52291;BME280;39663;45.432;28.050;2023-05-08T02:25:25;101707.95;;;16.57;38.72
52291;BME280;39663;45.432;28.050;2023-05-08T02:25:57;101705.94;;;16.25;39.73
52291;BME280;39663;45.432;28.050;2023-05-08T02:26:31;101706.35;;;16.57;39.12
52291;BME280;39663;45.432;28.050;2023-05-08T02:27:03;101708.13;;;16.48;39.31
52291;BME280;39663;45.432;28.050;2023-05-08T02:27:36;101703.88;;;16.37;39.47
52291;BME280;39663;45.432;28.050;2023-05-08T02:28:09;101704.73;;;16.52;39.87
52291;BME280;39663;45.432;28.050;2023-05-08T02:28:41;101703.07;;;16.11;40.14
52291;BME280;39663;45.432;28.050;2023-05-08T02:29:13;101700.28;;;16.11;39.56
52291;BME280;39663;45.432;28.050;2023-05-08T02:29:46;101703.96;;;16.22;40.10
52291;BME280;39663;45.432;28.050;2023-05-08T02:30:18;101703.93;;;16.15;39.39
52291;BME280;39663;45.432;28.050;2023-05-08T02:30:52;101704.32;;;16.05;39.44
52291;BME280;39663;45.432;28.050;2023-05-08T02:31:24;101704.72;;;16.28;39.45
52291;BME280;39663;45.432;28.050;2023-05-08T02:31:56;101709.32;;;16.24;39.64
52291;BME280;39663;45.432;28.050;2023-05-08T02:32:29;101708.88;;;16.07;40.27
52291;BME280;39663;45.432;28.050;2023-05-08T02:33:02;101713.15;;;16.03;40.05
52291;BME280;39663;45.432;28.050;2023-05-08T02:33:37;101713.16;;;15.70;39.84
52291;BME280;39663;45.432;28.050;2023-05-08T02:34:10;101715.65;;;15.70;40.14
52291;BME280;39663;45.432;28.050;2023-05-08T02:34:43;101714.94;;;15.28;40.71
52291;BME280;39663;45.432;28.050;2023-05-08T02:35:17;101716.78;;;15.52;41.10
52291;BME280;39663;45.432;28.050;2023-05-08T02:35:50;101715.67;;;15.11;41.42
52291;BME280;39663;45.432;28.050;2023-05-08T02:36:25;101717.49;;;15.29;41.29
52291;BME280;39663;45.432;28.050;2023-05-08T02:36:58;101719.33;;;15.31;41.75
52291;BME280;39663;45.432;28.050;2023-05-08T02:37:30;101718.46;;;15.38;41.72
52291;BME280;39663;45.432;28.050;2023-05-08T02:38:02;101719.02;;;15.41;41.36
52291;BME280;39663;45.432;28.050;2023-05-08T02:38:36;101716.81;;;15.50;41.85
52291;BME280;39663;45.432;28.050;2023-05-08T02:39:12;101720.02;;;15.57;41.35
52291;BME280;39663;45.432;28.050;2023-05-08T02:39:46;101721.14;;;15.25;42.26
52291;BME280;39663;45.432;28.050;2023-05-08T02:40:22;101719.62;;;15.18;42.18
52291;BME280;39663;45.432;28.050;2023-05-08T02:40:57;101720.19;;;15.07;42.58
52291;BME280;39663;45.432;28.050;2023-05-08T02:41:32;101719.03;;;14.99;42.44
52291;BME280;39663;45.432;28.050;2023-05-08T02:42:04;101715.24;;;15.26;41.83
52291;BME280;39663;45.432;28.050;2023-05-08T02:42:35;101716.30;;;15.39;42.25
52291;BME280;39663;45.432;28.050;2023-05-08T02:43:07;101712.25;;;15.55;41.85
52291;BME280;39663;45.432;28.050;2023-05-08T02:43:39;101711.95;;;15.46;41.63
52291;BME280;39663;45.432;28.050;2023-05-08T02:44:11;101712.81;;;15.78;41.73
52291;BME280;39663;45.432;28.050;2023-05-08T02:44:42;101713.87;;;15.67;42.00
52291;BME280;39663;45.432;28.050;2023-05-08T02:45:14;101715.01;;;14.94;42.65
52291;BME280;39663;45.432;28.050;2023-05-08T02:45:49;101713.66;;;15.06;42.44
52291;BME280;39663;45.432;28.050;2023-05-08T02:46:26;101716.74;;;15.09;42.69
52291;BME280;39663;45.432;28.050;2023-05-08T02:47:12;101713.92;;;15.23;42.57
52291;BME280;39663;45.432;28.050;2023-05-08T02:47:50;101716.49;;;14.88;42.57
52291;BME280;39663;45.432;28.050;2023-05-08T02:48:34;101717.16;;;15.11;42.30
52291;BME280;39663;45.432;28.050;2023-05-08T02:49:12;101715.06;;;15.32;42.06
52291;BME280;39663;45.432;28.050;2023-05-08T02:49:51;101714.54;;;15.41;41.74
52291;BME280;39663;45.432;28.050;2023-05-08T02:50:31;101714.79;;;15.61;41.96
52291;BME280;39663;45.432;28.050;2023-05-08T02:51:16;101714.78;;;15.65;41.63
52291;BME280;39663;45.432;28.050;2023-05-08T02:51:53;101714.49;;;15.70;41.78
52291;BME280;39663;45.432;28.050;2023-05-08T02:52:31;101713.82;;;15.87;42.27
52291;BME280;39663;45.432;28.050;2023-05-08T02:53:07;101712.00;;;15.54;42.12
52291;BME280;39663;45.432;28.050;2023-05-08T02:53:44;101713.83;;;15.40;42.44
52291;BME280;39663;45.432;28.050;2023-05-08T02:54:23;101710.79;;;15.46;42.03
52291;BME280;39663;45.432;28.050;2023-05-08T02:54:59;101710.90;;;15.63;41.86
52291;BME280;39663;45.432;28.050;2023-05-08T02:55:38;101712.90;;;15.41;42.04
52291;BME280;39663;45.432;28.050;2023-05-08T02:56:17;101711.78;;;15.47;42.04
52291;BME280;39663;45.432;28.050;2023-05-08T02:56:58;101712.37;;;15.56;42.05
52291;BME280;39663;45.432;28.050;2023-05-08T02:57:36;101713.58;;;15.50;41.71
52291;BME280;39663;45.432;28.050;2023-05-08T02:58:16;101713.64;;;15.49;41.82
52291;BME280;39663;45.432;28.050;2023-05-08T02:58:56;101715.02;;;15.42;41.73
52291;BME280;39663;45.432;28.050;2023-05-08T02:59:36;101716.86;;;15.39;42.33
52291;BME280;39663;45.432;28.050;2023-05-08T03:00:13;101717.40;;;15.45;41.78
52291;BME280;39663;45.432;28.050;2023-05-08T03:00:51;101719.24;;;15.46;41.92
52291;BME280;39663;45.432;28.050;2023-05-08T03:01:28;101720.19;;;15.42;42.07
52291;BME280;39663;45.432;28.050;2023-05-08T03:02:07;101721.53;;;15.49;42.04
52291;BME280;39663;45.432;28.050;2023-05-08T03:02:42;101722.78;;;15.35;42.41
52291;BME280;39663;45.432;28.050;2023-05-08T03:03:31;101722.80;;;14.77;42.86